Time;durP1;ratioP1;P1;durP2;ratioP2;P2;SDS_P1;SDS_P2;PMS_P1;PMS_P2;Temp;Humidity;BMP_temperature;BMP_pressure;BME280_temperature;BME280_humidity;BME280_pressure;Samples;Min_cycle;Max_cycle;Signal;HPM_P1;HPM_P2
2021/08/10 00:00:47;;;;;;;4.10;2.20;;;15.10;1.00;;;;;;5013635;28;20556;-74
2021/08/10 00:03:12;;;;;;;6.83;3.07;;;15.10;1.00;;;;;;5013533;28;20555;-74
2021/08/10 00:05:39;;;;;;;5.53;3.20;;;15.10;1.00;;;;;;5016706;28;20452;-74
2021/08/10 00:08:05;;;;;;;5.20;2.37;;;15.00;1.00;;;;;;5002840;28;20208;-74
2021/08/10 00:10:31;;;;;;;4.00;2.73;;;15.00;99.90;;;;;;5006216;28;20500;-74
2021/08/10 00:12:57;;;;;;;5.43;2.57;;;15.00;1.00;;;;;;5021844;28;20301;-74
2021/08/10 00:15:23;;;;;;;4.33;2.23;;;15.00;99.90;;;;;;5016452;28;20548;-74
2021/08/10 00:17:49;;;;;;;5.17;2.30;;;14.90;99.90;;;;;;5011820;28;20457;-74
2021/08/10 00:20:15;;;;;;;6.33;2.07;;;15.00;44.10;;;;;;5010569;28;20175;-74
2021/08/10 00:22:40;;;;;;;3.93;2.77;;;14.90;1.00;;;;;;5009435;28;20212;-74
2021/08/10 00:25:07;;;;;;;4.27;2.10;;;14.90;1.00;;;;;;5015258;28;20461;-74
2021/08/10 00:27:33;;;;;;;4.33;2.27;;;14.90;1.00;;;;;;5011878;28;20813;-74
2021/08/10 00:29:58;;;;;;;3.37;2.30;;;14.80;1.00;;;;;;5015204;28;20450;-74
2021/08/10 00:32:25;;;;;;;4.10;2.30;;;14.80;1.00;;;;;;5010418;28;20227;-74
2021/08/10 00:34:53;;;;;;;3.90;2.60;;;14.90;1.00;;;;;;5008906;28;20211;-74
2021/08/10 00:37:20;;;;;;;5.20;2.10;;;14.80;1.00;;;;;;5007970;28;20886;-74
2021/08/10 00:39:46;;;;;;;8.43;2.50;;;14.80;1.00;;;;;;5014426;28;20442;-75
2021/08/10 00:42:12;;;;;;;3.80;3.03;;;14.70;1.00;;;;;;5000038;28;21257;-75
2021/08/10 00:44:39;;;;;;;6.93;2.80;;;14.80;1.00;;;;;;5011066;28;20463;-74
2021/08/10 00:47:05;;;;;;;7.00;2.80;;;14.80;1.00;;;;;;5025515;28;20438;-74
2021/08/10 00:49:31;;;;;;;4.43;2.70;;;14.80;1.00;;;;;;5010511;28;21209;-74
2021/08/10 00:51:57;;;;;;;5.10;3.10;;;14.70;1.00;;;;;;5023261;28;20556;-74
2021/08/10 00:54:24;;;;;;;7.43;3.53;;;14.80;1.00;;;;;;5007034;28;20527;-75
2021/08/10 00:56:53;;;;;;;6.60;2.83;;;14.80;1.00;;;;;;5004495;28;20207;-74
2021/08/10 00:59:23;;;;;;;4.50;2.47;;;14.70;1.00;;;;;;5004982;28;21023;-74
2021/08/10 01:01:56;;;;;;;5.90;2.53;;;14.70;99.90;;;;;;5010610;28;21303;-74
2021/08/10 01:04:22;;;;;;;4.60;2.50;;;14.80;99.90;;;;;;5011121;28;20861;-74
2021/08/10 01:07:04;;;;;;;6.60;2.90;;;14.70;99.90;;;;;;5013255;28;20453;-74
2021/08/10 01:10:01;;;;;;;4.93;2.10;;;14.70;99.90;;;;;;5014633;28;22453;-74
2021/08/10 01:12:32;;;;;;;4.47;2.43;;;14.70;99.90;;;;;;5025695;28;20511;-74
2021/08/10 01:15:04;;;;;;;4.40;2.90;;;14.60;99.90;;;;;;5010632;28;20449;-74
2021/08/10 01:17:48;;;;;;;4.27;2.60;;;14.60;99.90;;;;;;5014284;28;20450;-74
2021/08/10 01:20:58;;;;;;;7.00;2.20;;;14.60;99.90;;;;;;5016873;28;20475;-73
2021/08/10 01:23:27;;;;;;;4.40;2.40;;;14.60;99.90;;;;;;5024265;28;20546;-74
2021/08/10 01:26:43;;;;;;;4.93;2.50;;;14.60;99.90;;;;;;5006225;28;20453;-74
2021/08/10 01:29:33;;;;;;;4.63;2.40;;;14.60;99.90;;;;;;5003232;28;20462;-74
2021/08/10 01:32:01;;;;;;;6.17;2.10;;;14.60;99.90;;;;;;5005651;28;20450;-74
2021/08/10 01:34:40;;;;;;;4.87;2.47;;;14.50;99.90;;;;;;5012498;28;20542;-74
2021/08/10 01:37:23;;;;;;;5.73;3.30;;;14.60;99.90;;;;;;5029172;28;21290;-74
2021/08/10 01:39:55;;;;;;;6.97;2.50;;;14.60;99.90;;;;;;5009813;28;20442;-74
2021/08/10 01:42:26;;;;;;;4.30;2.10;;;14.60;99.90;;;;;;5009530;28;20789;-74
2021/08/10 01:44:57;;;;;;;2.57;2.30;;;14.60;99.90;;;;;;5015114;28;20454;-74
2021/08/10 01:47:27;;;;;;;5.10;2.83;;;14.60;99.90;;;;;;5008749;28;20496;-74
2021/08/10 01:49:53;;;;;;;4.40;2.13;;;14.60;99.90;;;;;;5013176;28;20449;-75
2021/08/10 01:52:21;;;;;;;8.47;2.73;;;14.60;99.90;;;;;;5017584;28;20493;-74
2021/08/10 01:54:53;;;;;;;4.10;2.23;;;14.60;99.90;;;;;;5013090;28;20430;-74
2021/08/10 01:57:22;;;;;;;3.33;1.90;;;14.70;99.90;;;;;;5013400;28;20446;-74
2021/08/10 01:59:53;;;;;;;3.07;2.53;;;14.70;99.90;;;;;;5015768;28;20438;-74
2021/08/10 02:02:21;;;;;;;3.70;2.53;;;14.60;99.90;;;;;;5012645;28;20584;-73
2021/08/10 02:04:52;;;;;;;5.43;2.07;;;14.70;99.90;;;;;;5016412;28;20858;-74
2021/08/10 02:07:22;;;;;;;4.50;2.63;;;14.70;99.90;;;;;;5015033;28;20457;-75
2021/08/10 02:09:52;;;;;;;6.77;2.60;;;14.70;99.90;;;;;;5014046;28;20450;-75
2021/08/10 02:12:21;;;;;;;2.90;2.30;;;14.70;99.90;;;;;;5011423;28;21003;-75
2021/08/10 02:14:50;;;;;;;5.53;2.90;;;14.60;99.90;;;;;;5017979;28;20492;-74
2021/08/10 02:17:25;;;;;;;3.57;2.33;;;14.50;99.90;;;;;;5009804;28;20446;-74
2021/08/10 02:19:55;;;;;;;6.73;2.80;;;14.50;99.90;;;;;;5017090;28;20470;-74
2021/08/10 02:22:22;;;;;;;3.40;2.10;;;14.60;99.90;;;;;;5016182;28;20465;-74
2021/08/10 02:25:07;;;;;;;5.00;2.73;;;14.60;99.90;;;;;;5011652;28;20193;-74
2021/08/10 02:27:55;;;;;;;8.20;2.30;;;14.60;99.90;;;;;;5012314;28;20586;-74
2021/08/10 02:30:27;;;;;;;5.77;2.27;;;14.60;99.90;;;;;;5011525;28;20500;-74
2021/08/10 02:32:55;;;;;;;4.30;2.10;;;14.60;99.90;;;;;;5024543;28;20501;-74
2021/08/10 02:35:27;;;;;;;4.33;2.60;;;14.60;99.90;;;;;;5032052;28;20450;-74
2021/08/10 02:37:56;;;;;;;3.40;2.50;;;14.70;99.90;;;;;;5012885;28;20479;-74
2021/08/10 02:40:27;;;;;;;8.03;3.10;;;14.70;99.90;;;;;;5015890;28;20496;-74
2021/08/10 02:42:57;;;;;;;4.70;2.63;;;14.70;99.90;;;;;;5024262;28;20995;-74
2021/08/10 02:45:23;;;;;;;7.77;2.53;;;14.60;99.90;;;;;;5028215;28;20609;-74
2021/08/10 02:47:54;;;;;;;3.10;1.97;;;14.70;99.90;;;;;;5014279;28;20453;-74
2021/08/10 02:50:24;;;;;;;3.50;2.23;;;14.70;99.90;;;;;;5010995;28;20186;-75
2021/08/10 02:52:52;;;;;;;8.00;2.40;;;14.70;99.90;;;;;;5010658;28;20472;-75
2021/08/10 02:55:21;;;;;;;4.80;2.70;;;14.70;99.90;;;;;;5010926;28;20442;-75
2021/08/10 02:57:59;;;;;;;7.33;3.00;;;14.70;99.90;;;;;;5010806;28;20501;-75
2021/08/10 03:00:25;;;;;;;5.10;2.73;;;14.70;99.90;;;;;;5013930;28;20466;-73
2021/08/10 03:03:10;;;;;;;5.90;2.43;;;14.80;99.90;;;;;;5012536;28;20446;-74
2021/08/10 03:05:40;;;;;;;7.37;2.80;;;14.80;99.90;;;;;;5013247;28;20731;-73
2021/08/10 03:08:08;;;;;;;7.17;2.50;;;14.80;99.90;;;;;;5019875;28;21627;-73
2021/08/10 03:10:37;;;;;;;8.00;2.73;;;14.80;99.90;;;;;;5011906;28;20958;-73
2021/08/10 03:13:08;;;;;;;4.87;2.70;;;14.80;99.90;;;;;;5010951;28;20988;-73
2021/08/10 03:15:39;;;;;;;6.87;2.30;;;14.70;99.90;;;;;;5009750;28;20533;-73
2021/08/10 03:18:13;;;;;;;8.93;3.20;;;14.70;99.90;;;;;;5008238;28;20500;-73
2021/08/10 03:20:42;;;;;;;7.20;3.10;;;14.80;99.90;;;;;;5035058;28;20530;-73
2021/08/10 03:23:12;;;;;;;7.77;2.70;;;14.80;99.90;;;;;;5012918;28;20466;-73
2021/08/10 03:25:39;;;;;;;4.30;2.70;;;14.80;99.90;;;;;;5013213;28;20433;-73
2021/08/10 03:28:06;;;;;;;3.60;2.97;;;14.80;99.90;;;;;;5031137;28;20470;-73
2021/08/10 03:30:32;;;;;;;9.43;3.90;;;14.90;99.90;;;;;;5030288;28;20454;-73
2021/08/10 03:32:59;;;;;;;5.80;3.17;;;14.80;99.90;;;;;;5016300;28;20468;-72
2021/08/10 03:35:26;;;;;;;4.90;3.30;;;14.80;99.90;;;;;;5014266;28;21177;-73
2021/08/10 03:37:54;;;;;;;5.63;2.67;;;14.80;1.00;;;;;;5014368;28;20450;-72
2021/08/10 03:40:21;;;;;;;10.70;3.03;;;14.70;1.00;;;;;;5007293;28;20446;-73
2021/08/10 03:42:48;;;;;;;7.30;3.97;;;14.70;99.90;;;;;;5004569;28;24589;-73
2021/08/10 03:45:15;;;;;;;4.77;2.80;;;14.70;99.90;;;;;;5011726;28;20462;-73
2021/08/10 03:47:42;;;;;;;8.40;2.93;;;14.70;20.30;;;;;;4992169;28;20446;-74
2021/08/10 03:50:08;;;;;;;9.03;3.70;;;14.70;99.90;;;;;;5011718;28;20445;-73
2021/08/10 03:52:34;;;;;;;6.20;3.37;;;14.60;99.90;;;;;;5030431;28;20474;-73
2021/08/10 03:55:01;;;;;;;7.23;3.87;;;14.60;99.90;;;;;;5010126;28;21361;-73
2021/08/10 03:57:32;;;;;;;7.97;3.80;;;14.60;99.90;;;;;;5023296;28;20658;-73
2021/08/10 03:59:58;;;;;;;9.23;3.17;;;14.50;99.90;;;;;;5010945;28;20446;-73
2021/08/10 04:02:25;;;;;;;8.80;3.90;;;14.50;99.90;;;;;;5013535;28;20812;-73
2021/08/10 04:04:54;;;;;;;8.90;2.97;;;14.50;99.90;;;;;;5026957;28;20802;-72
2021/08/10 04:07:23;;;;;;;4.13;3.30;;;14.50;99.90;;;;;;5013663;28;20548;-73
2021/08/10 04:09:50;;;;;;;7.10;3.47;;;14.40;99.90;;;;;;5023094;28;22974;-73
2021/08/10 04:12:20;;;;;;;8.03;2.93;;;14.40;99.90;;;;;;5010398;28;20462;-73
2021/08/10 04:14:46;;;;;;;5.10;3.37;;;14.40;99.90;;;;;;5004835;28;20443;-73
2021/08/10 04:17:16;;;;;;;5.20;3.40;;;14.40;99.90;;;;;;5012707;28;20980;-74
2021/08/10 04:19:49;;;;;;;7.40;3.60;;;14.60;99.90;;;;;;5006066;28;20470;-72
2021/08/10 04:22:17;;;;;;;6.83;3.50;;;14.50;99.90;;;;;;4999697;28;20446;-72
2021/08/10 04:24:44;;;;;;;4.63;3.27;;;14.50;99.90;;;;;;5001327;28;20921;-72
2021/08/10 04:27:16;;;;;;;6.70;3.40;;;14.40;99.90;;;;;;5005541;28;20446;-72
2021/08/10 04:29:46;;;;;;;6.53;2.90;;;14.40;99.90;;;;;;5016896;28;20449;-73
2021/08/10 04:32:12;;;;;;;4.23;3.27;;;14.30;99.90;;;;;;5027016;28;20447;-73
2021/08/10 04:34:39;;;;;;;6.03;3.80;;;14.30;99.90;;;;;;5014790;28;20543;-73
2021/08/10 04:37:08;;;;;;;6.47;3.17;;;14.40;99.90;;;;;;5014593;28;20450;-72
2021/08/10 04:39:39;;;;;;;6.07;3.40;;;14.20;99.90;;;;;;5012111;28;20461;-72
2021/08/10 04:42:11;;;;;;;6.10;3.47;;;14.20;99.90;;;;;;5034875;28;20443;-72
2021/08/10 04:44:37;;;;;;;7.73;3.40;;;14.20;99.90;;;;;;5015296;28;20450;-73
2021/08/10 04:47:05;;;;;;;4.47;3.07;;;14.20;99.90;;;;;;5015256;28;20445;-72
2021/08/10 04:49:34;;;;;;;5.47;3.03;;;14.20;99.90;;;;;;5024071;28;20439;-72
2021/08/10 04:52:00;;;;;;;5.67;3.47;;;14.20;99.90;;;;;;5018650;28;20438;-72
2021/08/10 04:54:26;;;;;;;6.47;3.47;;;14.20;99.90;;;;;;5020480;28;20196;-72
2021/08/10 04:56:52;;;;;;;4.40;3.37;;;14.10;99.90;;;;;;5022869;28;20214;-72
2021/08/10 04:59:19;;;;;;;4.80;3.00;;;14.20;99.90;;;;;;5022215;28;20438;-72
2021/08/10 05:01:44;;;;;;;5.93;3.63;;;14.30;99.90;;;;;;5016252;28;20453;-72
2021/08/10 05:04:11;;;;;;;5.70;3.70;;;14.20;99.90;;;;;;5017424;28;20179;-73
2021/08/10 05:06:40;;;;;;;6.57;2.90;;;14.20;99.90;;;;;;5007414;28;20451;-72
2021/08/10 05:09:15;;;;;;;4.03;2.90;;;14.20;99.90;;;;;;5015349;28;20671;-72
2021/08/10 05:11:43;;;;;;;6.90;3.50;;;14.10;99.90;;;;;;5003636;28;20707;-73
2021/08/10 05:14:12;;;;;;;6.10;3.67;;;14.10;99.90;;;;;;5009123;28;20215;-72
2021/08/10 05:16:38;;;;;;;5.40;3.40;;;14.20;99.90;;;;;;5005677;28;20451;-72
2021/08/10 05:19:07;;;;;;;7.10;3.27;;;14.10;99.90;;;;;;5009737;28;20568;-72
2021/08/10 05:21:35;;;;;;;5.53;3.30;;;14.10;99.90;;;;;;5017895;28;21042;-72
2021/08/10 05:24:01;;;;;;;6.27;3.43;;;14.00;99.90;;;;;;5022524;28;20843;-72
2021/08/10 05:26:27;;;;;;;8.27;3.70;;;14.10;99.90;;;;;;5020351;28;20195;-72
2021/08/10 05:28:56;;;;;;;4.87;2.77;;;14.10;99.90;;;;;;5018287;28;20202;-74
2021/08/10 05:31:22;;;;;;;7.43;3.13;;;14.20;99.90;;;;;;5017349;28;20442;-71
2021/08/10 05:33:49;;;;;;;5.07;3.20;;;14.20;99.90;;;;;;5030933;28;20202;-72
2021/08/10 05:36:15;;;;;;;7.77;3.90;;;14.20;99.90;;;;;;5012936;28;20561;-72
2021/08/10 05:38:49;;;;;;;5.40;3.13;;;14.20;99.90;;;;;;5042864;28;20446;-71
2021/08/10 05:41:18;;;;;;;4.73;2.77;;;14.20;99.90;;;;;;5017133;28;20552;-72
2021/08/10 05:43:44;;;;;;;7.17;3.10;;;14.20;99.90;;;;;;5024018;28;20465;-72
2021/08/10 05:46:10;;;;;;;4.60;2.73;;;14.30;99.90;;;;;;5022423;28;21243;-71
2021/08/10 05:48:36;;;;;;;5.27;3.53;;;14.30;99.90;;;;;;5024703;28;20195;-72
2021/08/10 05:51:04;;;;;;;8.07;3.50;;;14.40;99.90;;;;;;5024774;28;20191;-71
2021/08/10 05:53:34;;;;;;;6.40;3.50;;;14.50;99.90;;;;;;5026949;28;20219;-72
2021/08/10 05:56:03;;;;;;;9.87;3.60;;;14.50;99.90;;;;;;5022096;28;20492;-72
2021/08/10 05:58:32;;;;;;;6.17;3.17;;;14.50;99.90;;;;;;5017520;28;20472;-71
2021/08/10 06:00:58;;;;;;;4.43;3.17;;;14.50;99.90;;;;;;5015889;28;21031;-72
2021/08/10 06:03:24;;;;;;;7.30;4.47;;;14.60;99.90;;;;;;5019558;28;20450;-72
2021/08/10 06:05:57;;;;;;;4.10;3.23;;;14.60;99.90;;;;;;5023755;28;20270;-72
2021/08/10 06:08:29;;;;;;;5.27;3.50;;;14.70;99.90;;;;;;5015451;28;20474;-72
2021/08/10 06:10:55;;;;;;;3.80;2.90;;;14.80;99.90;;;;;;5032333;28;20817;-72
2021/08/10 06:13:21;;;;;;;5.40;3.37;;;14.90;99.90;;;;;;5020539;28;20572;-72
2021/08/10 06:15:47;;;;;;;5.33;3.17;;;14.90;99.90;;;;;;5019755;28;20563;-72
2021/08/10 06:18:12;;;;;;;9.67;3.60;;;15.00;99.90;;;;;;5021121;28;20233;-72
2021/08/10 06:20:39;;;;;;;5.00;3.70;;;15.00;99.90;;;;;;5043556;28;20561;-72
2021/08/10 06:23:07;;;;;;;5.23;3.50;;;15.10;99.90;;;;;;5020138;28;21243;-72
2021/08/10 06:25:41;;;;;;;6.50;3.23;;;15.20;99.90;;;;;;5019250;28;20498;-72
2021/08/10 06:28:08;;;;;;;5.30;3.60;;;15.20;99.90;;;;;;5020353;28;20693;-72
2021/08/10 06:30:36;;;;;;;8.80;3.97;;;15.30;99.90;;;;;;5023850;28;20462;-72
2021/08/10 06:33:03;;;;;;;4.93;3.80;;;15.40;99.90;;;;;;5011751;28;20509;-73
2021/08/10 06:35:31;;;;;;;6.47;3.80;;;15.40;99.90;;;;;;5015643;28;20438;-72
2021/08/10 06:37:57;;;;;;;4.70;3.70;;;15.50;99.90;;;;;;5004061;28;21343;-73
2021/08/10 06:40:23;;;;;;;4.80;3.33;;;15.60;99.90;;;;;;5013101;28;20207;-73
2021/08/10 06:42:50;;;;;;;5.70;3.50;;;15.70;99.90;;;;;;5004126;28;20183;-72
2021/08/10 06:45:18;;;;;;;5.23;3.80;;;15.70;99.90;;;;;;4999726;28;20442;-73
2021/08/10 06:47:44;;;;;;;5.87;3.43;;;15.90;99.90;;;;;;5010088;28;20539;-74
2021/08/10 06:50:11;;;;;;;7.00;4.87;;;16.00;99.90;;;;;;5009116;28;20451;-72
2021/08/10 06:52:36;;;;;;;8.83;4.20;;;16.00;99.90;;;;;;5001549;28;21360;-72
2021/08/10 06:55:03;;;;;;;5.67;4.10;;;16.10;99.90;;;;;;5010450;28;20465;-73
2021/08/10 06:57:29;;;;;;;7.80;4.23;;;16.30;99.90;;;;;;5012315;28;20856;-72
2021/08/10 06:59:56;;;;;;;6.30;3.53;;;16.30;99.90;;;;;;5005219;28;20508;-72
2021/08/10 07:02:22;;;;;;;5.60;4.17;;;16.50;99.90;;;;;;5004020;28;20805;-72
2021/08/10 07:04:49;;;;;;;5.60;2.93;;;16.50;99.90;;;;;;5008808;28;20176;-72
2021/08/10 07:07:15;;;;;;;6.27;3.80;;;16.60;99.90;;;;;;5006158;28;21151;-73
2021/08/10 07:09:44;;;;;;;8.03;3.47;;;16.70;99.90;;;;;;5023285;28;20512;-73
2021/08/10 07:12:09;;;;;;;7.00;3.93;;;16.80;99.90;;;;;;5012835;28;20430;-73
2021/08/10 07:14:39;;;;;;;5.97;3.10;;;16.70;99.90;;;;;;5001617;28;20176;-73
2021/08/10 07:17:06;;;;;;;4.77;3.20;;;16.60;99.90;;;;;;5006095;28;20544;-73
2021/08/10 07:19:33;;;;;;;7.73;3.80;;;16.50;99.90;;;;;;5010857;28;20422;-73
2021/08/10 07:21:59;;;;;;;4.90;3.60;;;16.60;99.90;;;;;;5012736;28;20909;-73
2021/08/10 07:24:30;;;;;;;7.67;4.07;;;16.70;99.90;;;;;;5011378;28;20459;-72
2021/08/10 07:26:57;;;;;;;5.30;3.60;;;16.80;99.90;;;;;;5016683;28;20470;-73
2021/08/10 07:29:25;;;;;;;5.33;3.37;;;17.00;99.90;;;;;;5002259;28;20447;-73
2021/08/10 07:31:54;;;;;;;8.80;4.07;;;17.20;99.90;;;;;;5009420;28;20441;-72
2021/08/10 07:34:22;;;;;;;5.10;3.73;;;17.10;99.90;;;;;;5020451;28;20526;-73
2021/08/10 07:36:49;;;;;;;3.90;2.83;;;16.90;99.90;;;;;;5017693;28;20488;-73
2021/08/10 07:39:17;;;;;;;5.80;3.10;;;16.90;99.90;;;;;;5025510;28;20457;-73
2021/08/10 07:41:42;;;;;;;4.67;3.07;;;16.90;99.90;;;;;;5023784;28;20464;-72
2021/08/10 07:44:09;;;;;;;8.50;3.67;;;16.90;1.00;;;;;;5039446;28;20218;-72
2021/08/10 07:46:40;;;;;;;4.37;2.67;;;16.90;99.90;;;;;;5003733;28;20458;-73
2021/08/10 07:49:07;;;;;;;6.30;3.70;;;17.00;99.90;;;;;;5009167;28;20542;-72
2021/08/10 07:51:33;;;;;;;4.03;3.00;;;17.10;99.90;;;;;;5011564;28;20446;-72
2021/08/10 07:53:59;;;;;;;5.30;3.50;;;17.20;99.90;;;;;;5014484;28;20215;-72
2021/08/10 07:56:24;;;;;;;5.00;3.30;;;17.20;1.00;;;;;;5013230;28;20442;-72
2021/08/10 07:58:50;;;;;;;4.63;3.30;;;17.10;1.00;;;;;;5020646;28;20214;-73
2021/08/10 08:01:16;;;;;;;6.47;3.33;;;17.20;99.90;;;;;;5007201;28;20187;-72
2021/08/10 08:03:41;;;;;;;4.10;2.97;;;17.40;99.90;;;;;;5007293;28;20194;-73
2021/08/10 08:06:16;;;;;;;6.10;3.43;;;17.50;99.90;;;;;;5098225;27;20543;-72
2021/08/10 08:08:42;;;;;;;6.50;2.90;;;17.80;99.90;;;;;;5093665;28;20458;-73
2021/08/10 08:11:13;;;;;;;3.10;2.60;;;17.80;99.90;;;;;;5116377;27;20186;-73
2021/08/10 08:13:39;;;;;;;5.70;2.97;;;17.80;99.90;;;;;;5121748;27;20467;-72
2021/08/10 08:16:05;;;;;;;4.33;2.90;;;17.80;99.90;;;;;;5088234;28;20185;-72
2021/08/10 08:18:31;;;;;;;5.53;2.90;;;17.80;99.90;;;;;;5091478;28;20770;-73
2021/08/10 08:20:57;;;;;;;4.97;3.23;;;17.80;90.70;;;;;;5117728;27;20444;-73
2021/08/10 08:23:29;;;;;;;7.37;2.73;;;17.90;95.50;;;;;;5123711;27;20543;-73
2021/08/10 08:26:00;;;;;;;5.10;2.93;;;17.80;85.40;;;;;;5091460;28;20843;-73
2021/08/10 08:28:30;;;;;;;7.50;3.07;;;17.70;68.00;;;;;;5085016;28;20778;-74
2021/08/10 08:30:56;;;;;;;6.67;3.03;;;17.80;98.20;;;;;;5100366;27;20436;-73
2021/08/10 08:33:22;;;;;;;3.50;2.63;;;17.80;55.70;;;;;;5087443;28;20955;-72
2021/08/10 08:35:48;;;;;;;3.90;2.70;;;17.70;58.40;;;;;;5100583;27;20439;-73
2021/08/10 08:38:13;;;;;;;5.73;3.40;;;17.60;37.30;;;;;;5083454;28;20489;-73
2021/08/10 08:40:44;;;;;;;4.00;2.83;;;17.50;46.80;;;;;;5092515;28;20265;-73
2021/08/10 08:43:11;;;;;;;6.43;2.90;;;17.50;3.50;;;;;;5083006;28;20530;-73
2021/08/10 08:45:39;;;;;;;4.93;3.30;;;17.60;1.00;;;;;;5086051;28;20501;-73
2021/08/10 08:48:05;;;;;;;5.73;3.60;;;17.60;1.00;;;;;;5089183;28;20488;-73
2021/08/10 08:50:33;;;;;;;6.10;3.30;;;17.70;1.00;;;;;;5079771;27;21029;-73
2021/08/10 08:53:01;;;;;;;3.73;2.90;;;17.60;1.00;;;;;;5090230;28;20574;-73
2021/08/10 08:55:28;;;;;;;6.73;3.90;;;17.60;1.00;;;;;;5085311;28;20627;-73
2021/08/10 08:57:54;;;;;;;6.67;3.50;;;17.60;1.00;;;;;;5094622;28;20449;-73
2021/08/10 09:00:20;;;;;;;4.50;2.80;;;17.80;1.00;;;;;;5087290;28;20443;-73
2021/08/10 09:02:48;;;;;;;4.63;2.77;;;17.90;1.00;;;;;;5087270;28;20181;-73
2021/08/10 09:05:14;;;;;;;6.90;3.63;;;18.10;1.00;;;;;;5098169;27;20957;-73
2021/08/10 09:07:42;;;;;;;7.30;3.57;;;18.10;1.00;;;;;;5082862;28;20497;-74
2021/08/10 09:10:14;;;;;;;4.67;3.53;;;18.30;1.00;;;;;;5090108;28;20516;-73
2021/08/10 09:12:46;;;;;;;5.70;2.87;;;18.30;1.00;;;;;;5088951;28;20813;-73
2021/08/10 09:15:40;;;;;;;4.60;2.93;;;18.30;1.00;;;;;;5080561;28;20447;-73
2021/08/10 09:18:19;;;;;;;3.93;2.87;;;18.00;1.00;;;;;;5073215;28;21512;-73
2021/08/10 09:21:13;;;;;;;5.20;3.03;;;18.00;1.00;;;;;;5074852;28;21268;-74
2021/08/10 09:23:45;;;;;;;5.20;2.80;;;18.00;1.00;;;;;;5089879;27;20497;-73
2021/08/10 09:26:18;;;;;;;6.33;3.53;;;17.90;1.00;;;;;;5065218;28;22100;-74
2021/08/10 09:28:44;;;;;;;6.93;2.80;;;18.00;1.00;;;;;;5074854;28;20444;-74
2021/08/10 09:31:30;;;;;;;3.47;2.90;;;17.90;1.00;;;;;;5077475;28;20435;-73
2021/08/10 09:33:58;;;;;;;6.73;3.07;;;17.90;1.00;;;;;;5073750;28;20448;-73
2021/08/10 09:36:25;;;;;;;8.27;3.30;;;17.90;1.00;;;;;;5077892;28;20436;-74
2021/08/10 09:38:51;;;;;;;7.70;3.40;;;18.00;1.00;;;;;;5069982;28;20451;-73
2021/08/10 09:41:17;;;;;;;6.23;3.37;;;18.10;1.00;;;;;;5074946;28;21171;-73
2021/08/10 09:43:43;;;;;;;6.03;3.20;;;18.10;1.00;;;;;;5073772;28;20186;-73
2021/08/10 09:46:19;;;;;;;4.50;3.20;;;18.20;1.00;;;;;;5076110;28;20708;-74
2021/08/10 09:48:49;;;;;;;6.30;3.77;;;18.20;1.00;;;;;;5092942;27;20820;-73
2021/08/10 09:51:23;;;;;;;4.70;3.30;;;18.20;1.00;;;;;;5075485;28;20946;-74
2021/08/10 09:54:03;;;;;;;5.10;3.80;;;18.10;1.00;;;;;;5071638;28;21714;-74
2021/08/10 09:56:40;;;;;;;4.50;3.20;;;18.10;1.00;;;;;;5071197;28;20444;-73
2021/08/10 09:59:06;;;;;;;8.70;3.27;;;18.20;1.00;;;;;;5074258;28;20455;-74
2021/08/10 10:01:40;;;;;;;5.03;3.70;;;18.10;1.00;;;;;;5074549;28;20478;-73
2021/08/10 10:04:19;;;;;;;7.60;3.73;;;18.10;1.00;;;;;;5069554;28;20455;-74
2021/08/10 10:06:55;;;;;;;7.63;3.90;;;18.20;1.00;;;;;;5072058;28;20443;-74
2021/08/10 10:09:25;;;;;;;6.23;3.67;;;18.20;1.00;;;;;;5077633;28;21271;-74
2021/08/10 10:11:54;;;;;;;10.13;4.40;;;18.30;3.10;;;;;;5089623;27;20468;-74
2021/08/10 10:14:25;;;;;;;5.03;3.60;;;18.40;1.00;;;;;;5072480;28;20448;-74
2021/08/10 10:16:52;;;;;;;7.50;4.20;;;18.30;1.00;;;;;;5070004;28;20455;-75
2021/08/10 10:19:20;;;;;;;5.37;4.40;;;18.40;1.00;;;;;;5073776;28;20471;-74
2021/08/10 10:21:58;;;;;;;6.83;3.70;;;18.40;1.00;;;;;;5078693;28;20447;-74
2021/08/10 10:24:25;;;;;;;5.97;4.67;;;18.40;1.00;;;;;;5074434;28;20655;-75
2021/08/10 10:27:03;;;;;;;5.13;3.90;;;18.50;1.00;;;;;;5073032;28;20620;-74
2021/08/10 10:29:29;;;;;;;5.87;3.70;;;18.60;1.00;;;;;;5070186;28;20451;-75
2021/08/10 10:31:55;;;;;;;5.63;3.53;;;18.70;1.00;;;;;;5069412;28;20458;-74
2021/08/10 10:34:22;;;;;;;6.53;4.10;;;18.80;1.00;;;;;;5074083;28;20501;-74
2021/08/10 10:36:49;;;;;;;4.30;3.37;;;18.80;1.00;;;;;;5075293;28;20479;-74
2021/08/10 10:39:26;;;;;;;5.40;4.10;;;18.80;1.00;;;;;;5070828;28;20530;-74
2021/08/10 10:41:56;;;;;;;5.33;4.30;;;18.90;1.00;;;;;;5069413;28;20452;-75
2021/08/10 10:44:39;;;;;;;6.20;4.33;;;19.20;1.00;;;;;;5070543;28;20521;-75
2021/08/10 10:47:33;;;;;;;8.73;4.50;;;19.50;1.00;;;;;;5066643;28;20443;-75
2021/08/10 10:49:59;;;;;;;6.30;3.67;;;19.50;1.00;;;;;;5072083;28;20440;-75
2021/08/10 10:52:27;;;;;;;5.20;3.63;;;19.40;1.00;;;;;;5069675;28;20447;-75
2021/08/10 10:54:54;;;;;;;7.10;3.77;;;19.40;1.00;;;;;;5071634;28;20546;-75
2021/08/10 10:57:29;;;;;;;9.20;3.90;;;19.50;1.00;;;;;;5071169;28;20466;-75
2021/08/10 10:59:56;;;;;;;6.70;3.80;;;19.70;1.00;;;;;;5073224;28;20485;-72
2021/08/10 11:02:25;;;;;;;4.80;3.50;;;19.80;1.00;;;;;;5066912;28;20444;-73
2021/08/10 11:05:06;;;;;;;5.20;4.30;;;19.70;1.00;;;;;;5071777;28;20566;-73
2021/08/10 11:07:47;;;;;;;4.60;3.60;;;20.00;1.00;;;;;;5068357;28;20458;-72
2021/08/10 11:10:38;;;;;;;7.23;4.23;;;20.20;1.00;;;;;;5075391;28;20539;-73
2021/08/10 11:13:25;;;;;;;8.63;4.40;;;20.00;1.00;;;;;;5071171;28;21245;-72
2021/08/10 11:15:51;;;;;;;8.17;3.70;;;19.90;1.00;;;;;;5069801;28;20991;-72
2021/08/10 11:18:17;;;;;;;6.17;3.40;;;19.80;1.00;;;;;;5073940;28;20431;-72
2021/08/10 11:20:48;;;;;;;9.23;3.70;;;19.90;1.00;;;;;;5068695;28;20199;-73
2021/08/10 11:23:20;;;;;;;6.17;4.10;;;20.00;1.00;;;;;;5073280;28;20186;-72
2021/08/10 11:25:47;;;;;;;10.73;3.67;;;20.10;1.00;;;;;;5069896;28;20907;-72
2021/08/10 11:28:28;;;;;;;5.10;3.40;;;20.20;1.00;;;;;;5071855;28;20880;-72
2021/08/10 11:30:59;;;;;;;5.70;4.13;;;20.30;1.00;;;;;;5070939;28;20435;-72
2021/08/10 11:33:33;;;;;;;4.73;3.57;;;20.60;1.00;;;;;;5070598;28;20528;-73
2021/08/10 11:36:11;;;;;;;5.57;3.67;;;20.60;1.00;;;;;;5069659;28;20511;-73
2021/08/10 11:38:37;;;;;;;5.87;3.00;;;20.80;1.00;;;;;;5068925;28;21031;-73
2021/08/10 11:41:04;;;;;;;4.93;3.50;;;21.10;1.00;;;;;;5071670;28;20451;-72
2021/08/10 11:43:39;;;;;;;8.30;3.30;;;21.10;1.00;;;;;;5073642;28;20775;-73
2021/08/10 11:46:06;;;;;;;5.63;3.47;;;20.90;1.00;;;;;;5070891;28;20602;-72
2021/08/10 11:48:52;;;;;;;6.00;3.70;;;21.00;1.00;;;;;;5068641;28;20880;-73
2021/08/10 11:51:21;;;;;;;6.90;3.67;;;20.90;1.00;;;;;;5070049;28;20475;-73
2021/08/10 11:53:51;;;;;;;7.30;3.60;;;20.60;1.00;;;;;;5071845;28;20844;-73
2021/08/10 11:56:34;;;;;;;6.10;4.07;;;20.40;1.00;;;;;;5069487;28;20452;-73
2021/08/10 11:59:01;;;;;;;5.70;3.07;;;20.50;1.00;;;;;;5071473;28;20558;-73
2021/08/10 12:01:35;;;;;;;5.77;3.80;;;20.30;1.00;;;;;;5066870;28;20508;-72
2021/08/10 12:04:15;;;;;;;5.17;3.23;;;20.20;1.00;;;;;;5067140;28;20551;-73
2021/08/10 12:06:43;;;;;;;5.40;3.43;;;20.00;1.00;;;;;;5068277;28;20450;-73
2021/08/10 12:09:16;;;;;;;6.40;2.87;;;19.80;1.00;;;;;;5069567;28;20827;-73
2021/08/10 12:11:43;;;;;;;3.67;2.73;;;19.90;1.00;;;;;;5065665;28;21134;-73
2021/08/10 12:14:20;;;;;;;5.27;3.27;;;19.90;1.00;;;;;;5068149;28;20440;-73
2021/08/10 12:17:12;;;;;;;4.63;3.43;;;19.90;1.00;;;;;;5057022;28;20550;-73
2021/08/10 12:19:42;;;;;;;10.73;3.90;;;20.00;1.00;;;;;;5065757;28;20450;-73
2021/08/10 12:22:15;;;;;;;4.37;3.50;;;20.00;1.00;;;;;;5066051;28;20512;-73
2021/08/10 12:24:41;;;;;;;6.07;3.23;;;20.10;1.00;;;;;;5067500;28;21063;-73
2021/08/10 12:27:09;;;;;;;3.93;2.97;;;20.30;1.00;;;;;;5069746;28;20451;-73
2021/08/10 12:29:35;;;;;;;6.43;3.97;;;20.50;1.00;;;;;;5059015;28;20536;-73
2021/08/10 12:32:02;;;;;;;6.40;3.60;;;20.60;1.00;;;;;;5056903;28;20451;-75
2021/08/10 12:34:38;;;;;;;6.07;3.63;;;20.70;1.00;;;;;;5068354;28;20447;-73
2021/08/10 12:37:05;;;;;;;6.33;3.40;;;20.70;1.00;;;;;;5065678;28;21067;-73
2021/08/10 12:39:37;;;;;;;6.97;3.23;;;20.60;1.00;;;;;;5061418;28;20474;-73
2021/08/10 12:42:12;;;;;;;5.40;3.33;;;20.70;1.00;;;;;;5065270;28;20477;-73
2021/08/10 12:44:39;;;;;;;5.33;3.50;;;21.10;1.00;;;;;;5060882;28;20485;-74
2021/08/10 12:47:09;;;;;;;5.20;3.10;;;21.30;1.00;;;;;;5079727;28;20541;-74
2021/08/10 12:49:40;;;;;;;9.30;3.17;;;21.50;1.00;;;;;;5061554;28;20472;-74
2021/08/10 12:52:16;;;;;;;4.03;3.13;;;21.50;1.00;;;;;;5063049;28;20535;-74
2021/08/10 12:54:53;;;;;;;4.00;2.80;;;21.60;1.00;;;;;;5068454;28;20508;-75
2021/08/10 12:57:21;;;;;;;4.43;3.30;;;21.50;1.00;;;;;;5067136;28;20460;-74
2021/08/10 12:59:53;;;;;;;4.50;3.33;;;21.70;1.00;;;;;;5069961;28;20447;-74
2021/08/10 13:02:32;;;;;;;4.37;2.97;;;21.80;1.00;;;;;;5064554;28;20516;-74
2021/08/10 13:04:58;;;;;;;5.60;3.20;;;21.80;1.00;;;;;;5063971;28;20589;-74